createdAt,value
2024-04-19T00:00:14.001Z,96.31
2024-04-19T00:03:16.692Z,98.94
2024-04-19T00:06:19.626Z,100.00
2024-04-19T00:09:22.244Z,100.00
2024-04-19T00:12:24.785Z,100.00
2024-04-19T00:15:27.278Z,100.00
2024-04-19T00:18:30.129Z,100.00
2024-04-19T00:21:32.860Z,100.00
2024-04-19T00:24:35.481Z,99.96
2024-04-19T00:27:38.144Z,100.00
2024-04-19T00:30:44.141Z,100.00
2024-04-19T00:33:46.969Z,100.00
2024-04-19T00:36:49.611Z,100.00
2024-04-19T00:39:52.256Z,100.00
2024-04-19T00:42:57.364Z,100.00
2024-04-19T00:45:59.868Z,100.00
2024-04-19T00:49:02.394Z,100.00
2024-04-19T00:52:07.583Z,100.00
2024-04-19T00:55:10.228Z,100.00
2024-04-19T00:58:14.332Z,96.74
2024-04-19T01:01:18.699Z,96.74
2024-04-19T01:04:22.380Z,97.58
2024-04-19T01:07:25.277Z,95.64
2024-04-19T01:10:27.814Z,93.64
2024-04-19T01:13:30.366Z,93.18
2024-04-19T01:16:32.874Z,95.49
2024-04-19T01:19:35.330Z,97.70
2024-04-19T01:22:38.522Z,100.00
2024-04-19T01:25:42.802Z,100.00
2024-04-19T01:28:46.328Z,100.00
2024-04-19T01:31:48.848Z,100.00
2024-04-19T01:34:51.358Z,100.00
2024-04-19T01:37:53.841Z,100.00
2024-04-19T01:40:56.368Z,100.00
2024-04-19T01:43:59.911Z,100.00
2024-04-19T01:47:02.591Z,100.00
2024-04-19T01:50:06.155Z,100.00
2024-04-19T01:53:08.635Z,100.00
2024-04-19T01:56:11.193Z,100.00
2024-04-19T01:59:16.647Z,100.00
2024-04-19T02:02:19.247Z,100.00
2024-04-19T02:05:21.748Z,100.00
2024-04-19T02:08:24.260Z,100.00
2024-04-19T02:11:26.918Z,100.00
2024-04-19T02:14:31.500Z,100.00
2024-04-19T02:17:34.242Z,100.00
2024-04-19T02:20:36.895Z,100.00
2024-04-19T02:23:39.566Z,100.00
2024-04-19T02:26:42.449Z,100.00
2024-04-19T02:30:03.838Z,100.00
2024-04-19T02:33:06.422Z,100.00
2024-04-19T02:36:11.002Z,100.00
2024-04-19T02:39:13.596Z,100.00
2024-04-19T02:42:16.102Z,100.00
2024-04-19T02:45:27.694Z,100.00
2024-04-19T02:48:30.456Z,100.00
2024-04-19T02:51:33.147Z,100.00
2024-04-19T02:54:35.703Z,100.00
2024-04-19T02:57:38.246Z,100.00
2024-04-19T03:00:40.911Z,100.00
2024-04-19T03:03:43.650Z,100.00
2024-04-19T03:06:46.414Z,100.00
2024-04-19T03:09:49.018Z,100.00
2024-04-19T03:12:51.798Z,100.00
2024-04-19T03:16:03.880Z,100.00
2024-04-19T03:19:18.393Z,100.00
2024-04-19T03:22:20.942Z,100.00
2024-04-19T03:25:23.577Z,100.00
2024-04-19T03:28:26.091Z,100.00
2024-04-19T03:31:28.597Z,100.00
2024-04-19T03:34:31.244Z,100.00
2024-04-19T03:37:33.748Z,100.00
2024-04-19T03:40:36.313Z,100.00
2024-04-19T03:43:43.033Z,100.00
2024-04-19T03:46:45.567Z,100.00
2024-04-19T03:49:48.196Z,100.00
2024-04-19T03:52:50.720Z,100.00
2024-04-19T03:55:53.561Z,100.00
2024-04-19T03:58:56.170Z,100.00
2024-04-19T04:01:58.726Z,100.00
2024-04-19T04:05:01.306Z,100.00
2024-04-19T04:08:04.098Z,100.00
2024-04-19T04:11:10.709Z,100.00
2024-04-19T04:14:13.216Z,100.00
2024-04-19T04:17:15.774Z,100.00
2024-04-19T04:20:18.453Z,100.00
2024-04-19T04:23:20.974Z,100.00
2024-04-19T04:26:23.487Z,100.00
2024-04-19T04:29:28.631Z,100.00
2024-04-19T04:32:31.178Z,100.00
2024-04-19T04:35:35.860Z,100.00
2024-04-19T04:38:38.381Z,100.00
2024-04-19T04:41:41.444Z,100.00
2024-04-19T04:44:43.988Z,100.00
2024-04-19T04:47:46.626Z,100.00
2024-04-19T04:50:49.189Z,100.00
2024-04-19T04:53:51.732Z,100.00
2024-04-19T04:56:54.260Z,100.00
2024-04-19T04:59:56.787Z,100.00
2024-04-19T05:03:00.986Z,100.00
2024-04-19T05:06:03.861Z,100.00
2024-04-19T05:09:06.359Z,100.00
2024-04-19T05:12:09.765Z,100.00
2024-04-19T05:15:12.292Z,100.00
2024-04-19T05:18:17.859Z,100.00
2024-04-19T05:21:20.457Z,100.00
2024-04-19T05:24:22.998Z,100.00
2024-04-19T05:27:25.553Z,100.00
2024-04-19T05:30:29.274Z,100.00
2024-04-19T05:33:31.986Z,100.00
2024-04-19T05:36:34.499Z,100.00
2024-04-19T05:39:37.163Z,100.00
2024-04-19T05:42:39.761Z,100.00
2024-04-19T05:45:43.737Z,100.00
2024-04-19T05:48:46.383Z,100.00
2024-04-19T05:51:48.972Z,100.00
2024-04-19T05:54:51.611Z,100.00
2024-04-19T05:57:54.525Z,100.00
2024-04-19T06:00:57.167Z,100.00
2024-04-19T06:04:00.098Z,100.00
2024-04-19T06:07:02.822Z,100.00
2024-04-19T06:10:06.721Z,100.00
2024-04-19T06:13:09.309Z,100.00
2024-04-19T06:16:12.144Z,100.00
2024-04-19T06:19:14.681Z,100.00
2024-04-19T06:22:17.463Z,100.00
2024-04-19T06:25:19.989Z,100.00
2024-04-19T06:28:22.944Z,100.00
2024-04-19T06:31:25.564Z,100.00
2024-04-19T06:34:29.295Z,100.00
2024-04-19T06:37:31.811Z,100.00
2024-04-19T06:40:34.405Z,100.00
2024-04-19T06:43:36.952Z,100.00
2024-04-19T06:46:39.479Z,100.00
2024-04-19T06:49:42.101Z,100.00
2024-04-19T06:52:44.665Z,100.00
2024-04-19T06:55:49.374Z,100.00
2024-04-19T06:58:51.946Z,100.00
2024-04-19T07:01:55.058Z,100.00
2024-04-19T07:04:57.722Z,100.00
2024-04-19T07:08:00.348Z,100.00
2024-04-19T07:11:03.961Z,99.02
2024-04-19T07:14:06.564Z,91.36
2024-04-19T07:17:09.162Z,94.08
2024-04-19T07:20:11.862Z,96.31
2024-04-19T07:23:15.911Z,90.47
2024-04-19T07:26:18.677Z,89.08
2024-04-19T07:29:23.673Z,86.26
2024-04-19T07:32:26.266Z,86.78
2024-04-19T07:35:28.967Z,93.07
2024-04-19T07:38:31.546Z,83.02
2024-04-19T07:41:37.052Z,68.63
2024-04-19T07:44:40.307Z,51.67
2024-04-19T07:47:42.986Z,48.33
2024-04-19T07:50:47.082Z,45.61
2024-04-19T07:53:49.708Z,43.59
2024-04-19T07:56:53.030Z,45.89
2024-04-19T07:59:55.643Z,41.39
2024-04-19T08:02:58.914Z,41.11
2024-04-19T08:06:01.457Z,42.23
2024-04-19T08:09:04.053Z,36.04
2024-04-19T08:12:08.048Z,37.56
2024-04-19T08:15:10.562Z,36.65
2024-04-19T08:18:13.139Z,36.51
2024-04-19T08:21:15.642Z,36.75
2024-04-19T08:24:18.226Z,39.48
2024-04-19T08:27:21.434Z,37.63
2024-04-19T08:30:24.507Z,47.70
2024-04-19T08:33:27.104Z,49.45
2024-04-19T08:36:29.643Z,54.50
2024-04-19T08:39:32.209Z,47.96
2024-04-19T08:42:34.783Z,39.26
2024-04-19T08:45:37.498Z,39.41
2024-04-19T08:48:44.342Z,42.29
2024-04-19T08:52:00.735Z,36.32
2024-04-19T08:55:10.348Z,41.14
2024-04-19T08:58:14.588Z,41.30
2024-04-19T09:01:17.214Z,36.26
2024-04-19T09:04:19.831Z,42.12
2024-04-19T09:07:22.539Z,42.45
2024-04-19T09:10:26.071Z,38.44
2024-04-19T09:13:28.603Z,40.05
2024-04-19T09:16:33.777Z,35.57
2024-04-19T09:19:36.677Z,32.01
2024-04-19T09:22:39.242Z,30.79
2024-04-19T09:25:42.405Z,34.64
2024-04-19T09:28:45.081Z,28.35
2024-04-19T09:31:47.719Z,28.33
2024-04-19T09:34:51.485Z,32.32
2024-04-19T09:37:55.047Z,30.44
2024-04-19T09:41:01.003Z,30.56
2024-04-19T09:44:06.029Z,31.67
2024-04-19T09:47:10.588Z,31.21
2024-04-19T09:50:15.856Z,29.34
2024-04-19T09:53:26.315Z,31.56
2024-04-19T09:56:47.176Z,32.42
2024-04-19T09:59:50.562Z,31.19
2024-04-19T10:02:53.955Z,30.65
2024-04-19T10:05:56.909Z,32.26
2024-04-19T10:08:59.939Z,37.58
2024-04-19T10:12:03.744Z,39.81
2024-04-19T10:15:10.893Z,45.65
2024-04-19T10:18:13.715Z,48.58
2024-04-19T10:21:16.413Z,48.33
2024-04-19T10:24:23.731Z,50.63
2024-04-19T10:27:30.616Z,51.78
2024-04-19T10:30:36.835Z,54.12
2024-04-19T10:33:39.966Z,51.42
2024-04-19T10:36:42.560Z,51.78
2024-04-19T10:39:48.154Z,39.54
2024-04-19T10:43:01.661Z,35.32
2024-04-19T10:46:04.572Z,32.85
2024-04-19T10:49:07.183Z,32.35
2024-04-19T10:56:59.821Z,27.58
2024-04-19T11:00:02.359Z,28.50
2024-04-19T11:03:14.331Z,26.94
2024-04-19T11:06:20.851Z,29.70
2024-04-19T11:09:24.466Z,29.61
2024-04-19T11:12:27.871Z,27.24
2024-04-19T11:15:36.896Z,28.13
2024-04-19T11:18:46.886Z,28.06
2024-04-19T11:21:50.285Z,28.27
2024-04-19T11:24:56.093Z,28.01
2024-04-19T11:27:59.268Z,27.84
2024-04-19T11:31:10.272Z,28.18
2024-04-19T11:34:15.015Z,25.93
2024-04-19T11:37:18.206Z,26.68
2024-04-19T11:40:25.223Z,26.08
2024-04-19T11:43:28.050Z,26.81
2024-04-19T11:46:31.268Z,24.68
2024-04-19T11:49:33.986Z,25.01
2024-04-19T11:52:38.852Z,26.42
2024-04-19T11:55:42.421Z,28.06
2024-04-19T11:58:45.510Z,28.74
2024-04-19T12:01:48.783Z,28.03
2024-04-19T12:04:51.568Z,26.97
2024-04-19T12:07:54.740Z,24.51
2024-04-19T12:10:57.579Z,24.23
2024-04-19T12:14:50.724Z,27.99
2024-04-19T12:17:27.122Z,31.05
2024-04-19T12:20:46.411Z,30.98
2024-04-19T12:23:54.777Z,30.90
2024-04-19T12:27:00.373Z,32.71
2024-04-19T12:30:03.299Z,31.18
2024-04-19T12:33:06.079Z,31.79
2024-04-19T12:36:08.797Z,30.63
2024-04-19T12:39:11.331Z,30.19
2024-04-19T12:42:13.944Z,31.43
2024-04-19T12:45:16.899Z,32.71
2024-04-19T12:48:21.030Z,30.66
2024-04-19T12:51:25.280Z,32.58
2024-04-19T12:54:28.070Z,29.26
2024-04-19T12:57:30.686Z,31.66
2024-04-19T13:00:33.348Z,32.89
2024-04-19T13:03:36.126Z,33.08
2024-04-19T13:06:38.903Z,31.57
2024-04-19T13:09:41.637Z,30.71
2024-04-19T13:12:44.155Z,33.99
2024-04-19T13:15:46.766Z,30.30
2024-04-19T13:18:49.882Z,28.92
2024-04-19T13:21:52.689Z,31.29
2024-04-19T13:24:55.333Z,32.85
2024-04-19T13:27:58.056Z,33.21
2024-04-19T13:31:00.783Z,34.46
2024-04-19T13:34:03.411Z,32.55
2024-04-19T13:37:10.688Z,31.32
2024-04-19T13:40:13.899Z,33.96
2024-04-19T13:43:17.109Z,33.77
2024-04-19T13:46:19.837Z,31.19
2024-04-19T13:49:22.460Z,31.80
2024-04-19T13:52:24.990Z,34.52
2024-04-19T13:55:27.509Z,34.04
2024-04-19T13:58:31.240Z,33.83
2024-04-19T14:01:34.000Z,33.30
2024-04-19T14:04:37.105Z,34.45
2024-04-19T14:07:39.716Z,32.98
2024-04-19T14:10:44.586Z,32.55
2024-04-19T14:13:47.102Z,34.19
2024-04-19T14:16:50.475Z,33.52
2024-04-19T14:19:55.269Z,33.29
2024-04-19T14:22:57.764Z,37.77
2024-04-19T14:26:01.434Z,34.38
2024-04-19T14:29:04.044Z,34.47
2024-04-19T14:32:06.805Z,34.66
2024-04-19T14:35:09.658Z,34.11
2024-04-19T14:38:12.274Z,34.40
2024-04-19T14:41:14.804Z,35.60
2024-04-19T14:44:17.879Z,34.65
2024-04-19T14:47:21.897Z,35.64
2024-04-19T14:50:24.546Z,35.90
2024-04-19T14:53:27.482Z,37.96
2024-04-19T14:56:30.109Z,41.43
2024-04-19T14:59:32.681Z,41.07
2024-04-19T15:02:35.271Z,40.75
2024-04-19T15:05:39.965Z,40.98
2024-04-19T15:08:42.482Z,39.73
2024-04-19T15:11:45.059Z,41.88
2024-04-19T15:14:47.653Z,40.47
2024-04-19T15:17:51.982Z,39.95
2024-04-19T15:20:54.523Z,38.30
2024-04-19T15:23:57.026Z,37.47
2024-04-19T15:26:59.591Z,38.11
2024-04-19T15:30:02.251Z,41.05
2024-04-19T15:33:05.323Z,42.01
2024-04-19T15:36:08.062Z,43.04
2024-04-19T15:39:10.615Z,42.82
2024-04-19T15:42:14.341Z,43.52
2024-04-19T15:45:17.381Z,42.98
2024-04-19T15:48:20.082Z,42.33
2024-04-19T15:51:22.732Z,42.87
2024-04-19T15:54:25.488Z,41.43
2024-04-19T15:57:28.438Z,42.32
2024-04-19T16:00:31.202Z,45.58
2024-04-19T16:03:34.926Z,46.08
2024-04-19T16:06:37.603Z,46.04
2024-04-19T16:09:40.713Z,46.55
2024-04-19T16:12:43.418Z,46.39
2024-04-19T16:15:46.080Z,45.82
2024-04-19T16:18:49.949Z,46.94
2024-04-19T16:21:52.575Z,47.84
2024-04-19T16:24:56.030Z,49.28
2024-04-19T16:27:58.706Z,50.66
2024-04-19T16:31:01.638Z,49.37
2024-04-19T16:34:04.646Z,49.25
2024-04-19T16:37:07.270Z,48.34
2024-04-19T16:40:10.283Z,53.45
2024-04-19T16:43:13.430Z,50.09
2024-04-19T16:46:15.938Z,51.03
2024-04-19T16:49:18.470Z,51.02
2024-04-19T16:52:21.757Z,50.93
2024-04-19T16:55:24.881Z,52.20
2024-04-19T16:58:27.568Z,51.33
2024-04-19T17:01:30.182Z,51.44
2024-04-19T17:04:33.248Z,53.26
2024-04-19T17:07:35.861Z,53.22
2024-04-19T17:10:38.591Z,53.58
2024-04-19T17:13:41.444Z,52.75
2024-04-19T17:16:45.111Z,52.79
2024-04-19T17:19:47.901Z,53.67
2024-04-19T17:22:50.443Z,54.17
2024-04-19T17:25:53.046Z,54.44
2024-04-19T17:28:57.015Z,55.50
2024-04-19T17:31:59.518Z,54.87
2024-04-19T17:35:03.078Z,55.54
2024-04-19T17:38:05.635Z,56.14
2024-04-19T17:41:08.551Z,55.78
2024-04-19T17:44:11.007Z,56.14
2024-04-19T17:47:13.637Z,58.18
2024-04-19T17:50:16.255Z,59.84
2024-04-19T17:53:18.726Z,59.52
2024-04-19T17:56:21.193Z,62.68
2024-04-19T17:59:24.024Z,66.79
2024-04-19T18:02:26.554Z,68.59
2024-04-19T18:05:30.966Z,67.39
2024-04-19T18:08:33.490Z,63.82
2024-04-19T18:11:36.543Z,66.30
2024-04-19T18:14:39.041Z,67.59
2024-04-19T18:17:41.567Z,69.59
2024-04-19T18:20:46.983Z,67.69
2024-04-19T18:23:49.812Z,70.38
2024-04-19T18:26:52.657Z,71.01
2024-04-19T18:29:59.949Z,75.78
2024-04-19T18:33:05.054Z,76.92
2024-04-19T18:36:07.843Z,75.67
2024-04-19T18:39:11.555Z,76.47
2024-04-19T18:42:14.056Z,78.49
2024-04-19T18:45:16.990Z,73.13
2024-04-19T18:48:19.547Z,79.38
2024-04-19T18:51:22.438Z,71.62
2024-04-19T18:54:25.140Z,72.51
2024-04-19T18:57:47.866Z,71.39
2024-04-19T19:01:16.593Z,74.36
2024-04-19T19:04:40.977Z,73.71
2024-04-19T19:08:03.389Z,72.10
2024-04-19T19:11:28.069Z,74.25
2024-04-19T19:14:33.214Z,81.99
2024-04-19T19:17:37.558Z,72.45
2024-04-19T19:20:40.047Z,79.27
2024-04-19T19:23:42.980Z,80.05
2024-04-19T19:26:46.131Z,73.67
2024-04-19T19:29:48.939Z,79.54
2024-04-19T19:32:51.738Z,79.83
2024-04-19T19:35:56.151Z,78.92
2024-04-19T19:38:58.638Z,82.92
2024-04-19T19:42:02.453Z,85.72
2024-04-19T19:45:05.355Z,84.01
2024-04-19T19:48:08.101Z,83.63
2024-04-19T19:51:11.160Z,88.56
2024-04-19T19:54:13.937Z,86.92
2024-04-19T19:57:16.570Z,82.92
2024-04-19T20:00:38.129Z,86.15
2024-04-19T20:03:59.218Z,82.56
2024-04-19T20:07:03.156Z,82.15
2024-04-19T20:10:05.989Z,82.94
2024-04-19T20:13:10.116Z,80.61
2024-04-19T20:16:16.515Z,82.01
2024-04-19T20:19:19.088Z,81.54
2024-04-19T20:22:22.718Z,84.35
2024-04-19T20:25:28.020Z,84.83
2024-04-19T20:28:30.523Z,87.15
2024-04-19T20:31:33.073Z,81.48
2024-04-19T20:34:35.555Z,81.20
2024-04-19T20:37:38.034Z,79.31
2024-04-19T20:40:40.595Z,80.00
2024-04-19T20:43:43.126Z,82.08
2024-04-19T20:46:45.600Z,83.35
2024-04-19T20:49:48.180Z,83.76
2024-04-19T20:52:51.765Z,84.63
2024-04-19T20:55:54.968Z,84.28
2024-04-19T20:58:57.838Z,85.78
2024-04-19T21:02:00.548Z,87.20
2024-04-19T21:05:04.498Z,90.24
2024-04-19T21:08:07.283Z,89.95
2024-04-19T21:11:10.049Z,89.96
2024-04-19T21:14:12.559Z,91.36
2024-04-19T21:17:15.357Z,93.88
2024-04-19T21:20:18.051Z,92.49
2024-04-19T21:23:20.542Z,91.82
2024-04-19T21:26:23.688Z,94.60
2024-04-19T21:29:26.197Z,97.45
2024-04-19T21:32:30.407Z,95.05
2024-04-19T21:35:33.203Z,91.45
2024-04-19T21:38:35.761Z,96.08
2024-04-19T21:41:38.299Z,98.17
2024-04-19T21:44:40.782Z,100.00
2024-04-19T21:47:45.612Z,100.00
2024-04-19T21:50:48.131Z,100.00
2024-04-19T21:53:51.405Z,100.00
2024-04-19T21:56:53.933Z,100.00
2024-04-19T21:59:56.375Z,100.00
2024-04-19T22:02:58.824Z,100.00
2024-04-19T22:06:02.340Z,100.00
2024-04-19T22:09:04.840Z,100.00
2024-04-19T22:12:07.610Z,100.00
2024-04-19T22:15:10.518Z,100.00
2024-04-19T22:18:13.085Z,100.00
2024-04-19T22:21:16.586Z,100.00
2024-04-19T22:24:19.246Z,100.00
2024-04-19T22:27:21.760Z,100.00
2024-04-19T22:30:24.441Z,100.00
2024-04-19T22:33:28.260Z,100.00
2024-04-19T22:36:30.860Z,100.00
2024-04-19T22:39:34.194Z,100.00
2024-04-19T22:42:36.759Z,100.00
2024-04-19T22:45:42.099Z,100.00
2024-04-19T22:48:44.735Z,100.00
2024-04-19T22:51:47.295Z,100.00
2024-04-19T22:54:49.890Z,100.00
2024-04-19T22:57:52.511Z,100.00
2024-04-19T23:01:01.140Z,100.00
2024-04-19T23:04:04.489Z,100.00
2024-04-19T23:07:07.182Z,100.00
2024-04-19T23:10:09.894Z,100.00
2024-04-19T23:13:12.406Z,100.00
2024-04-19T23:16:15.089Z,100.00
2024-04-19T23:19:17.597Z,100.00
2024-04-19T23:22:20.318Z,100.00
2024-04-19T23:25:23.303Z,100.00
2024-04-19T23:28:25.828Z,100.00
2024-04-19T23:31:28.348Z,100.00
2024-04-19T23:34:30.827Z,100.00
2024-04-19T23:37:33.806Z,100.00
2024-04-19T23:40:36.331Z,100.00
2024-04-19T23:43:38.861Z,100.00
2024-04-19T23:46:41.365Z,100.00
2024-04-19T23:49:43.905Z,100.00
2024-04-19T23:52:46.790Z,100.00
2024-04-19T23:55:49.286Z,100.00
2024-04-19T23:58:51.772Z,100.00
